createdAt,value
2022-12-17T00:01:54.326Z,14.00
2022-12-17T00:04:41.172Z,15.10
2022-12-17T00:07:35.545Z,15.70
2022-12-17T00:10:24.033Z,15.30
2022-12-17T00:13:10.859Z,14.70
2022-12-17T00:15:57.885Z,17.40
2022-12-17T00:18:45.194Z,16.50
2022-12-17T00:21:32.198Z,14.70
2022-12-17T00:24:18.951Z,15.00
2022-12-17T00:27:05.966Z,16.60
2022-12-17T00:29:53.060Z,17.00
2022-12-17T00:32:39.796Z,15.20
2022-12-17T00:35:27.095Z,15.60
2022-12-17T00:38:13.824Z,15.60
2022-12-17T00:41:00.740Z,15.50
2022-12-17T00:43:47.553Z,16.80
2022-12-17T00:46:51.961Z,17.50
2022-12-17T00:49:39.163Z,15.30
2022-12-17T00:52:25.905Z,16.50
2022-12-17T00:55:13.021Z,16.60
2022-12-17T00:57:59.733Z,16.00
2022-12-17T01:00:46.770Z,17.70
2022-12-17T01:03:34.041Z,17.50
2022-12-17T01:06:22.780Z,18.00
2022-12-17T01:09:09.747Z,17.30
2022-12-17T01:11:57.503Z,17.70
2022-12-17T01:14:46.831Z,18.60
2022-12-17T01:17:33.645Z,17.60
2022-12-17T01:20:20.366Z,17.90
2022-12-17T01:23:07.083Z,16.10
2022-12-17T01:25:53.988Z,17.30
2022-12-17T01:28:45.406Z,17.10
2022-12-17T01:31:35.185Z,18.80
2022-12-17T01:34:22.223Z,17.30
2022-12-17T01:37:08.911Z,16.70
2022-12-17T01:39:55.950Z,16.60
2022-12-17T01:42:42.786Z,19.20
2022-12-17T01:45:33.458Z,19.80
2022-12-17T01:48:32.346Z,16.30
2022-12-17T01:51:20.555Z,17.30
2022-12-17T01:54:11.343Z,15.60
2022-12-17T01:57:02.089Z,15.90
2022-12-17T02:00:00.169Z,16.80
2022-12-17T02:02:56.448Z,17.50
2022-12-17T02:06:15.391Z,16.30
2022-12-17T02:09:34.311Z,18.40
2022-12-17T02:12:37.137Z,16.00
2022-12-17T02:15:32.112Z,17.00
2022-12-17T02:18:27.017Z,16.90
2022-12-17T02:21:17.308Z,16.50
2022-12-17T02:24:23.036Z,15.70
2022-12-17T02:27:21.246Z,16.80
2022-12-17T02:30:13.465Z,17.20
2022-12-17T02:33:05.692Z,16.00
2022-12-17T02:36:03.146Z,17.10
2022-12-17T02:38:52.174Z,18.80
2022-12-17T02:41:49.091Z,17.00
2022-12-17T02:44:40.645Z,17.10
2022-12-17T02:47:30.398Z,17.50
2022-12-17T02:50:18.302Z,17.40
2022-12-17T02:53:08.308Z,15.90
2022-12-17T02:55:55.931Z,17.50
2022-12-17T02:58:43.473Z,15.40
2022-12-17T03:01:30.561Z,16.10
2022-12-17T03:04:17.479Z,17.50
2022-12-17T03:07:06.648Z,15.80
2022-12-17T03:09:53.585Z,15.70
2022-12-17T03:12:40.745Z,14.30
2022-12-17T03:15:28.449Z,16.50
2022-12-17T03:18:15.256Z,17.30
2022-12-17T03:21:02.468Z,19.00
2022-12-17T03:23:49.310Z,17.20
2022-12-17T03:26:35.887Z,16.60
2022-12-17T03:29:23.007Z,16.80
2022-12-17T03:32:10.706Z,14.80
2022-12-17T03:34:57.753Z,16.30
2022-12-17T03:37:44.567Z,17.10
2022-12-17T03:40:31.586Z,16.90
2022-12-17T03:43:28.183Z,16.40
2022-12-17T03:46:16.027Z,16.80
2022-12-17T03:49:04.180Z,17.40
2022-12-17T03:51:50.698Z,17.30
2022-12-17T03:54:37.406Z,16.70
2022-12-17T03:57:24.163Z,16.20
2022-12-17T04:00:11.086Z,16.20
2022-12-17T04:03:00.760Z,16.10
2022-12-17T04:05:47.944Z,16.40
2022-12-17T04:08:35.101Z,17.00
2022-12-17T04:11:22.155Z,15.80
2022-12-17T04:14:08.944Z,16.50
2022-12-17T04:16:56.110Z,17.20
2022-12-17T04:19:43.426Z,16.50
2022-12-17T04:22:33.126Z,16.90
2022-12-17T04:25:20.368Z,17.10
2022-12-17T04:28:07.133Z,17.60
2022-12-17T04:30:53.900Z,15.80
2022-12-17T04:33:40.635Z,16.20
2022-12-17T04:36:27.914Z,16.10
2022-12-17T04:39:14.684Z,16.40
2022-12-17T04:42:01.465Z,16.00
2022-12-17T04:44:48.513Z,16.90
2022-12-17T04:47:35.161Z,16.10
2022-12-17T04:50:39.014Z,16.90
2022-12-17T04:53:26.359Z,16.40
2022-12-17T04:56:14.599Z,15.10
2022-12-17T04:59:06.482Z,17.30
2022-12-17T05:01:53.551Z,16.10
2022-12-17T05:04:40.575Z,17.10
2022-12-17T05:07:27.579Z,17.90
2022-12-17T05:10:14.372Z,16.10
2022-12-17T05:13:01.100Z,17.00
2022-12-17T05:15:52.949Z,17.40
2022-12-17T05:18:41.072Z,14.40
2022-12-17T05:21:33.184Z,17.40
2022-12-17T05:24:20.911Z,15.90
2022-12-17T05:27:07.702Z,18.10
2022-12-17T05:29:54.855Z,16.70
2022-12-17T05:32:41.779Z,16.60
2022-12-17T05:35:28.492Z,15.70
2022-12-17T05:38:24.110Z,17.00
2022-12-17T05:41:16.042Z,17.10
2022-12-17T05:44:04.015Z,17.10
2022-12-17T05:46:51.118Z,16.90
2022-12-17T05:49:38.322Z,14.30
2022-12-17T05:52:25.257Z,16.40
2022-12-17T05:55:12.043Z,16.30
2022-12-17T05:57:59.379Z,15.60
2022-12-17T06:00:46.610Z,15.40
2022-12-17T06:03:33.610Z,15.80
2022-12-17T06:06:20.924Z,15.20
2022-12-17T06:09:08.043Z,16.50
2022-12-17T06:12:00.901Z,16.00
2022-12-17T06:14:49.242Z,16.20
2022-12-17T06:17:35.871Z,15.70
2022-12-17T06:20:23.561Z,16.00
2022-12-17T06:23:29.447Z,17.40
2022-12-17T06:29:03.677Z,15.70
2022-12-17T06:31:50.941Z,16.50
2022-12-17T06:34:37.914Z,16.30
2022-12-17T06:37:24.860Z,17.10
2022-12-17T06:40:11.534Z,16.50
2022-12-17T06:42:58.350Z,16.70
2022-12-17T06:45:45.465Z,17.10
2022-12-17T06:48:32.480Z,17.90
2022-12-17T06:51:19.499Z,16.70
2022-12-17T06:54:06.419Z,17.00
2022-12-17T06:56:53.323Z,15.20
2022-12-17T06:59:40.649Z,17.00
2022-12-17T07:02:29.897Z,14.70
2022-12-17T07:05:16.832Z,15.60
2022-12-17T07:08:03.597Z,16.30
2022-12-17T07:10:50.637Z,16.70
2022-12-17T07:13:37.664Z,14.80
2022-12-17T07:16:25.037Z,17.60
2022-12-17T07:19:12.457Z,17.80
2022-12-17T07:21:59.136Z,17.10
2022-12-17T07:24:45.877Z,17.10
2022-12-17T07:27:33.245Z,15.50
2022-12-17T07:30:20.179Z,14.00
2022-12-17T07:33:07.195Z,18.30
2022-12-17T07:35:54.008Z,16.00
2022-12-17T07:38:40.933Z,15.40
2022-12-17T07:41:28.147Z,17.40
2022-12-17T07:44:14.817Z,17.70
2022-12-17T07:47:01.897Z,15.30
2022-12-17T07:49:49.037Z,15.00
2022-12-17T07:52:37.461Z,15.70
2022-12-17T07:55:25.371Z,15.80
2022-12-17T07:58:26.006Z,15.60
2022-12-17T08:01:13.337Z,16.70
2022-12-17T08:04:01.065Z,15.40
2022-12-17T08:06:48.315Z,17.60
2022-12-17T08:09:35.207Z,16.30
2022-12-17T08:12:21.927Z,14.20
2022-12-17T08:15:09.234Z,15.70
2022-12-17T08:17:55.937Z,18.10
2022-12-17T08:20:43.059Z,17.30
2022-12-17T08:23:29.866Z,15.10
2022-12-17T08:26:17.089Z,15.60
2022-12-17T08:33:32.210Z,14.40
2022-12-17T08:36:48.322Z,14.60
2022-12-17T08:39:37.585Z,16.00
2022-12-17T08:43:18.820Z,14.70
2022-12-17T08:46:11.191Z,14.80
2022-12-17T08:49:11.285Z,14.90
2022-12-17T08:52:00.615Z,15.20
2022-12-17T08:54:48.299Z,15.80
2022-12-17T08:57:34.908Z,15.10
2022-12-17T09:00:24.231Z,14.40
2022-12-17T09:03:18.248Z,14.40
2022-12-17T09:06:09.835Z,14.20
2022-12-17T09:08:59.808Z,14.10
2022-12-17T09:12:03.488Z,14.40
2022-12-17T09:15:10.465Z,15.80
2022-12-17T09:18:03.768Z,14.60
2022-12-17T09:20:50.881Z,13.10
2022-12-17T09:23:45.343Z,14.70
2022-12-17T09:26:37.407Z,17.50
2022-12-17T09:29:28.732Z,14.40
2022-12-17T09:32:16.927Z,17.60
2022-12-17T09:35:05.328Z,15.00
2022-12-17T09:37:54.992Z,14.70
2022-12-17T09:40:45.816Z,14.60
2022-12-17T09:44:27.003Z,15.80
2022-12-17T09:47:29.756Z,15.50
2022-12-17T09:50:37.523Z,16.20
2022-12-17T09:53:40.520Z,15.70
2022-12-17T09:56:38.360Z,14.30
2022-12-17T09:59:41.138Z,15.90
2022-12-17T10:02:37.585Z,16.30
2022-12-17T10:05:47.506Z,15.80
2022-12-17T10:08:40.770Z,16.10
2022-12-17T10:12:04.629Z,16.60
2022-12-17T10:21:43.845Z,15.80
2022-12-17T10:24:39.414Z,14.90
2022-12-17T10:27:40.459Z,15.30
2022-12-17T10:30:35.743Z,14.80
2022-12-17T10:33:30.401Z,15.60
2022-12-17T10:36:22.739Z,16.30
2022-12-17T10:39:15.389Z,14.80
2022-12-17T10:42:05.171Z,15.80
2022-12-17T10:45:01.100Z,14.80
2022-12-17T10:48:12.070Z,15.90
2022-12-17T10:51:01.605Z,14.90
2022-12-17T10:53:52.452Z,14.30
2022-12-17T10:56:53.089Z,16.20
2022-12-17T10:59:58.437Z,15.50
2022-12-17T11:02:56.536Z,15.90
2022-12-17T11:05:59.594Z,15.20
2022-12-17T11:08:51.872Z,15.90
2022-12-17T11:12:02.907Z,16.60
2022-12-17T11:23:09.946Z,15.70
2022-12-17T11:26:21.049Z,15.00
2022-12-17T11:29:17.373Z,17.40
2022-12-17T11:32:24.765Z,13.90
2022-12-17T11:35:59.295Z,14.40
2022-12-17T11:39:02.118Z,16.10
2022-12-17T11:42:03.475Z,14.90
2022-12-17T11:44:59.665Z,16.20
2022-12-17T11:48:25.192Z,15.40
2022-12-17T11:51:23.504Z,14.00
2022-12-17T11:54:25.328Z,15.00
2022-12-17T11:57:38.096Z,15.40
2022-12-17T12:00:38.894Z,14.60
2022-12-17T12:03:47.060Z,14.20
2022-12-17T12:07:30.807Z,14.20
2022-12-17T12:10:38.497Z,13.80
2022-12-17T12:13:46.904Z,16.40
2022-12-17T12:17:10.502Z,16.50
2022-12-17T12:21:02.119Z,16.10
2022-12-17T12:24:30.732Z,15.10
2022-12-17T12:27:42.829Z,15.80
2022-12-17T12:30:39.785Z,14.90
2022-12-17T12:33:52.043Z,13.10
2022-12-17T12:36:42.526Z,14.40
2022-12-17T12:39:49.881Z,15.60
2022-12-17T12:43:45.624Z,14.20
2022-12-17T12:46:47.303Z,13.60
2022-12-17T12:50:55.424Z,13.80
2022-12-17T12:53:55.641Z,13.70
2022-12-17T12:56:56.002Z,14.40
2022-12-17T12:59:53.040Z,13.60
2022-12-17T13:02:39.929Z,14.20
2022-12-17T13:05:35.657Z,12.60
2022-12-17T13:08:08.741Z,10.90
2022-12-17T13:10:38.102Z,13.90
2022-12-17T13:13:20.160Z,11.90
2022-12-17T13:15:55.901Z,14.00
2022-12-17T13:18:37.957Z,13.00
2022-12-17T13:21:28.000Z,13.10
2022-12-17T13:23:56.565Z,12.90
2022-12-17T13:26:45.207Z,13.20
2022-12-17T13:29:40.548Z,13.40
2022-12-17T13:32:25.194Z,13.00
2022-12-17T13:35:21.936Z,14.10
2022-12-17T13:37:55.949Z,12.60
2022-12-17T13:40:44.887Z,14.30
2022-12-17T13:43:21.401Z,12.10
2022-12-17T13:45:52.795Z,12.70
2022-12-17T13:48:25.871Z,13.10
2022-12-17T13:51:00.321Z,13.00
2022-12-17T13:53:34.048Z,13.70
2022-12-17T13:56:02.429Z,12.90
2022-12-17T13:58:34.121Z,13.10
2022-12-17T14:01:15.363Z,14.00
2022-12-17T14:04:06.352Z,12.80
2022-12-17T14:06:38.744Z,12.00
2022-12-17T14:09:07.129Z,14.30
2022-12-17T14:11:57.132Z,12.10
2022-12-17T14:14:46.908Z,12.00
2022-12-17T14:17:24.508Z,13.40
2022-12-17T14:20:14.567Z,12.80
2022-12-17T14:22:54.568Z,13.70
2022-12-17T14:25:38.268Z,13.00
2022-12-17T14:28:22.543Z,11.10
2022-12-17T14:31:26.115Z,11.60
2022-12-17T14:34:11.632Z,11.60
2022-12-17T14:36:43.582Z,11.40
2022-12-17T14:39:25.008Z,11.40
2022-12-17T14:42:25.496Z,12.60
2022-12-17T14:45:21.413Z,12.00
2022-12-17T14:48:15.696Z,11.00
2022-12-17T14:50:54.510Z,11.20
2022-12-17T14:53:27.042Z,11.50
2022-12-17T14:55:59.561Z,12.90
2022-12-17T14:58:28.233Z,10.00
2022-12-17T15:01:13.809Z,12.10
2022-12-17T15:03:48.239Z,12.10
2022-12-17T15:06:20.106Z,11.30
2022-12-17T15:08:50.525Z,12.10
2022-12-17T15:11:22.107Z,11.10
2022-12-17T15:13:54.546Z,11.70
2022-12-17T15:16:24.546Z,11.50
2022-12-17T15:18:52.836Z,12.10
2022-12-17T15:21:21.198Z,9.90
2022-12-17T15:23:49.515Z,10.80
2022-12-17T15:26:17.691Z,10.20
2022-12-17T15:28:46.458Z,11.90
2022-12-17T15:31:19.540Z,10.20
2022-12-17T15:33:49.996Z,9.90
2022-12-17T15:36:17.944Z,9.40
2022-12-17T15:38:46.568Z,11.20
2022-12-17T15:41:42.888Z,13.60
2022-12-17T15:44:10.924Z,12.20
2022-12-17T15:46:39.749Z,12.90
2022-12-17T15:49:08.005Z,13.00
2022-12-17T15:51:36.299Z,10.40
2022-12-17T15:54:04.576Z,14.20
2022-12-17T15:56:32.758Z,12.00
2022-12-17T15:59:00.694Z,12.50
2022-12-17T16:01:29.028Z,11.60
2022-12-17T16:03:58.220Z,13.10
2022-12-17T16:06:26.360Z,11.90
2022-12-17T16:08:54.334Z,13.00
2022-12-17T16:11:22.411Z,11.90
2022-12-17T16:13:55.310Z,11.70
2022-12-17T16:16:24.760Z,12.30
2022-12-17T16:18:52.974Z,11.40
2022-12-17T16:21:20.947Z,11.30
2022-12-17T16:23:49.939Z,12.00
2022-12-17T16:26:17.838Z,10.70
2022-12-17T16:28:46.182Z,11.80
2022-12-17T16:31:16.779Z,11.80
2022-12-17T16:33:48.190Z,10.80
2022-12-17T16:36:20.940Z,11.30
2022-12-17T16:38:55.092Z,12.70
2022-12-17T16:41:23.746Z,13.10
2022-12-17T16:43:51.612Z,11.60
2022-12-17T16:46:37.018Z,11.70
2022-12-17T16:49:15.825Z,10.90
2022-12-17T16:51:45.858Z,10.80
2022-12-17T16:54:18.301Z,11.30
2022-12-17T16:56:47.646Z,12.20
2022-12-17T16:59:17.625Z,11.60
2022-12-17T17:01:48.893Z,10.50
2022-12-17T17:04:21.916Z,10.80
2022-12-17T17:06:54.349Z,10.50
2022-12-17T17:09:24.401Z,9.90
2022-12-17T17:11:57.066Z,10.20
2022-12-17T17:14:26.566Z,9.60
2022-12-17T17:16:54.475Z,11.20
2022-12-17T17:19:22.683Z,10.10
2022-12-17T17:21:54.375Z,9.60
2022-12-17T17:24:26.812Z,9.30
2022-12-17T17:26:55.877Z,11.20
2022-12-17T17:29:24.598Z,11.50
2022-12-17T17:32:09.732Z,11.10
2022-12-17T17:34:40.310Z,11.30
2022-12-17T17:37:08.573Z,10.00
2022-12-17T17:39:36.608Z,9.40
2022-12-17T17:42:05.612Z,9.40
2022-12-17T17:44:34.241Z,10.90
2022-12-17T17:47:02.328Z,11.40
2022-12-17T17:49:30.887Z,9.80
2022-12-17T17:52:14.365Z,10.10
2022-12-17T17:54:42.549Z,9.80
2022-12-17T17:57:10.964Z,9.70
2022-12-17T17:59:41.906Z,11.70
2022-12-17T18:02:11.639Z,10.50
2022-12-17T18:04:40.189Z,9.30
2022-12-17T18:07:24.831Z,9.90
2022-12-17T18:09:55.814Z,9.50
2022-12-17T18:12:43.021Z,10.00
2022-12-17T18:15:14.870Z,10.10
2022-12-17T18:17:50.716Z,9.30
2022-12-17T18:20:19.679Z,10.80
2022-12-17T18:22:48.109Z,9.30
2022-12-17T18:25:18.533Z,10.10
2022-12-17T18:27:46.630Z,11.20
2022-12-17T18:30:16.954Z,9.30
2022-12-17T18:32:51.255Z,10.20
2022-12-17T18:35:19.427Z,9.90
2022-12-17T18:37:48.414Z,9.40
2022-12-17T18:40:16.489Z,8.70
2022-12-17T18:43:04.225Z,9.70
2022-12-17T18:45:32.292Z,9.00
2022-12-17T18:48:02.881Z,8.90
2022-12-17T18:50:31.154Z,9.80
2022-12-17T18:52:59.174Z,9.60
2022-12-17T18:55:27.434Z,9.90
2022-12-17T18:57:55.956Z,8.20
2022-12-17T19:00:24.103Z,10.70
2022-12-17T19:02:52.216Z,9.00
2022-12-17T19:05:20.522Z,7.40
2022-12-17T19:07:48.389Z,9.40
2022-12-17T19:10:16.520Z,8.90
2022-12-17T19:12:45.691Z,9.30
2022-12-17T19:15:13.871Z,8.90
2022-12-17T19:17:41.847Z,10.20
2022-12-17T19:20:10.828Z,8.50
2022-12-17T19:22:39.209Z,7.80
2022-12-17T19:25:08.417Z,7.80
2022-12-17T19:27:36.479Z,8.90
2022-12-17T19:30:05.581Z,8.50
2022-12-17T19:32:33.750Z,10.10
2022-12-17T19:35:02.535Z,8.30
2022-12-17T19:37:30.586Z,8.50
2022-12-17T19:39:58.566Z,8.20
2022-12-17T19:42:34.960Z,7.80
2022-12-17T19:45:05.729Z,8.30
2022-12-17T19:47:34.365Z,8.00
2022-12-17T19:50:04.499Z,8.80
2022-12-17T19:52:32.659Z,8.50
2022-12-17T19:55:02.064Z,7.60
2022-12-17T19:57:30.753Z,9.70
2022-12-17T19:59:59.268Z,8.50
2022-12-17T20:02:32.618Z,8.50
2022-12-17T20:05:01.018Z,8.70
2022-12-17T20:07:28.971Z,8.50
2022-12-17T20:09:56.832Z,8.50
2022-12-17T20:12:24.811Z,8.10
2022-12-17T20:14:52.746Z,7.70
2022-12-17T20:17:20.649Z,8.60
2022-12-17T20:19:49.609Z,7.80
2022-12-17T20:22:17.459Z,8.40
2022-12-17T20:24:45.591Z,8.60
2022-12-17T20:27:14.064Z,7.90
2022-12-17T20:29:42.030Z,9.00
2022-12-17T20:32:10.135Z,10.20
2022-12-17T20:34:38.176Z,8.70
2022-12-17T20:37:06.145Z,7.50
2022-12-17T20:39:34.417Z,8.90
2022-12-17T20:42:02.494Z,9.50
2022-12-17T20:44:30.667Z,9.10
2022-12-17T20:46:58.635Z,8.60
2022-12-17T20:49:27.829Z,8.90
2022-12-17T20:51:55.831Z,10.20
2022-12-17T20:54:23.877Z,11.20
2022-12-17T20:56:51.830Z,9.20
2022-12-17T20:59:20.633Z,8.50
2022-12-17T21:01:55.685Z,9.90
2022-12-17T21:04:24.871Z,8.90
2022-12-17T21:06:53.765Z,9.20
2022-12-17T21:09:22.971Z,8.80
2022-12-17T21:11:51.454Z,8.70
2022-12-17T21:14:20.134Z,8.60
2022-12-17T21:16:49.087Z,10.60
2022-12-17T21:19:20.117Z,8.80
2022-12-17T21:21:49.441Z,8.90
2022-12-17T21:24:17.797Z,8.70
2022-12-17T21:26:47.230Z,8.70
2022-12-17T21:29:17.138Z,9.50
2022-12-17T21:31:49.809Z,8.60
2022-12-17T21:34:25.536Z,9.40
2022-12-17T21:36:53.704Z,9.00
2022-12-17T21:39:21.839Z,10.30
2022-12-17T21:42:09.370Z,9.70
2022-12-17T21:44:37.786Z,9.60
2022-12-17T21:47:06.166Z,9.10
2022-12-17T21:49:34.456Z,9.20
2022-12-17T21:52:03.956Z,10.90
2022-12-17T21:54:35.299Z,10.10
2022-12-17T21:57:03.501Z,11.20
2022-12-17T21:59:31.866Z,8.80
2022-12-17T22:02:00.756Z,10.40
2022-12-17T22:04:29.127Z,9.60
2022-12-17T22:06:59.412Z,8.20
2022-12-17T22:09:46.454Z,8.80
2022-12-17T22:12:55.902Z,10.40
2022-12-17T22:15:25.779Z,10.40
2022-12-17T22:18:03.328Z,9.70
2022-12-17T22:20:31.893Z,10.40
2022-12-17T22:23:00.093Z,10.30
2022-12-17T22:25:28.585Z,8.90
2022-12-17T22:27:56.833Z,10.00
2022-12-17T22:30:43.770Z,9.70
2022-12-17T22:34:06.604Z,9.40
2022-12-17T22:36:48.936Z,9.70
2022-12-17T22:42:29.772Z,12.20
2022-12-17T22:44:42.076Z,9.60
2022-12-17T22:44:54.207Z,9.70
2022-12-17T22:49:52.169Z,9.30
2022-12-17T22:52:21.061Z,10.10
2022-12-17T22:54:49.742Z,9.60
2022-12-17T22:57:35.658Z,10.20
2022-12-17T23:00:23.797Z,11.00
2022-12-17T23:02:54.777Z,10.80
2022-12-17T23:05:25.623Z,10.00
2022-12-17T23:07:54.410Z,11.50
2022-12-17T23:10:24.374Z,12.00
2022-12-17T23:12:55.041Z,9.60
2022-12-17T23:15:27.656Z,11.10
2022-12-17T23:17:59.712Z,10.80
2022-12-17T23:20:32.714Z,11.00
2022-12-17T23:23:01.815Z,10.10
2022-12-17T23:25:31.793Z,10.40
2022-12-17T23:28:00.033Z,11.30
2022-12-17T23:30:28.287Z,10.10
2022-12-17T23:32:56.338Z,16.90
2022-12-17T23:35:25.044Z,10.70
2022-12-17T23:37:53.015Z,10.10
2022-12-17T23:40:22.100Z,10.00
2022-12-17T23:42:50.592Z,11.00
2022-12-17T23:45:18.559Z,12.80
2022-12-17T23:47:46.431Z,11.90
2022-12-17T23:50:14.805Z,11.10
2022-12-17T23:52:42.982Z,10.40
2022-12-17T23:55:11.814Z,10.20
2022-12-17T23:57:40.660Z,11.20
